createdAt,value
2022-07-28T00:01:13.140Z,100255.34
2022-07-28T00:03:40.493Z,100244.66
2022-07-28T00:06:07.466Z,100245.41
2022-07-28T00:08:34.253Z,100245.66
2022-07-28T00:11:01.006Z,100251.22
2022-07-28T00:13:27.774Z,100256.03
2022-07-28T00:15:54.608Z,100255.97
2022-07-28T00:18:21.417Z,100259.34
2022-07-28T00:20:48.404Z,100255.53
2022-07-28T00:23:15.298Z,100255.88
2022-07-28T00:25:42.236Z,100256.09
2022-07-28T00:28:09.015Z,100263.00
2022-07-28T00:30:36.452Z,100258.94
2022-07-28T00:33:03.506Z,100255.94
2022-07-28T00:35:31.723Z,100254.37
2022-07-28T00:37:59.435Z,100250.59
2022-07-28T00:40:46.925Z,100243.72
2022-07-28T00:43:14.075Z,100249.00
2022-07-28T00:45:40.860Z,100250.44
2022-07-28T00:48:07.770Z,100253.84
2022-07-28T00:50:34.636Z,100254.09
2022-07-28T00:53:01.560Z,100257.34
2022-07-28T00:55:28.355Z,100265.81
2022-07-28T00:57:55.245Z,100266.72
2022-07-28T01:00:22.365Z,100265.28
2022-07-28T01:02:49.799Z,100270.84
2022-07-28T01:05:16.705Z,100269.59
2022-07-28T01:08:52.512Z,100269.69
2022-07-28T01:11:32.756Z,100272.00
2022-07-28T01:14:26.559Z,100267.78
2022-07-28T01:17:09.089Z,100271.09
2022-07-28T01:20:05.898Z,100279.91
2022-07-28T01:22:38.892Z,100281.34
2022-07-28T01:25:21.676Z,100276.62
2022-07-28T01:27:48.418Z,100278.66
2022-07-28T01:30:34.340Z,100273.66
2022-07-28T01:33:41.435Z,100270.97
2022-07-28T01:36:29.521Z,100276.22
2022-07-28T01:38:57.141Z,100284.19
2022-07-28T01:41:27.940Z,100279.88
2022-07-28T01:44:03.235Z,100284.56
2022-07-28T01:46:30.587Z,100282.84
2022-07-28T01:48:59.008Z,100278.34
2022-07-28T01:51:29.485Z,100278.94
2022-07-28T01:53:59.670Z,100280.81
2022-07-28T01:56:28.765Z,100274.31
2022-07-28T01:58:58.275Z,100274.09
2022-07-28T02:01:25.624Z,100278.19
2022-07-28T02:03:54.685Z,100275.47
2022-07-28T02:06:22.806Z,100275.72
2022-07-28T02:08:51.762Z,100274.63
2022-07-28T02:11:37.474Z,100277.31
2022-07-28T02:14:05.213Z,100273.88
2022-07-28T02:16:32.358Z,100280.09
2022-07-28T02:19:00.846Z,100275.94
2022-07-28T02:21:31.419Z,100283.19
2022-07-28T02:24:00.091Z,100282.31
2022-07-28T02:26:35.618Z,100282.97
2022-07-28T02:29:05.401Z,100283.75
2022-07-28T02:31:57.135Z,100280.41
2022-07-28T02:34:27.999Z,100288.81
2022-07-28T02:36:59.094Z,100288.34
2022-07-28T02:39:44.795Z,100289.97
2022-07-28T02:42:30.924Z,100293.44
2022-07-28T02:45:00.023Z,100295.00
2022-07-28T02:47:31.549Z,100299.28
2022-07-28T02:50:02.154Z,100297.72
2022-07-28T02:52:29.966Z,100301.69
2022-07-28T02:54:58.973Z,100307.87
2022-07-28T02:57:27.325Z,100310.00
2022-07-28T02:59:55.747Z,100301.72
2022-07-28T03:02:23.006Z,100304.44
2022-07-28T03:04:57.078Z,100307.59
2022-07-28T03:07:24.098Z,100312.41
2022-07-28T03:09:50.973Z,100322.47
2022-07-28T03:12:21.967Z,100319.22
2022-07-28T03:14:49.282Z,100324.31
2022-07-28T03:17:16.708Z,100328.63
2022-07-28T03:19:43.654Z,100331.63
2022-07-28T03:22:10.780Z,100337.72
2022-07-28T03:24:40.821Z,100334.66
2022-07-28T03:27:28.785Z,100329.50
2022-07-28T03:30:06.355Z,100333.56
2022-07-28T03:32:36.785Z,100339.84
2022-07-28T03:35:05.085Z,100346.03
2022-07-28T03:37:49.995Z,100352.03
2022-07-28T03:40:17.756Z,100352.56
2022-07-28T03:42:47.825Z,100345.22
2022-07-28T03:45:18.022Z,100348.81
2022-07-28T03:47:56.302Z,100360.34
2022-07-28T03:50:24.316Z,100358.25
2022-07-28T03:52:51.725Z,100355.84
2022-07-28T03:55:19.167Z,100352.81
2022-07-28T03:57:46.126Z,100351.19
2022-07-28T04:00:14.868Z,100356.72
2022-07-28T04:02:43.995Z,100352.75
2022-07-28T04:05:12.812Z,100351.97
2022-07-28T04:07:40.835Z,100358.50
2022-07-28T04:10:10.156Z,100353.41
2022-07-28T04:12:47.867Z,100357.50
2022-07-28T04:15:15.698Z,100356.75
2022-07-28T04:17:43.566Z,100353.72
2022-07-28T04:20:11.838Z,100362.84
2022-07-28T04:22:38.954Z,100364.66
2022-07-28T04:25:07.025Z,100370.53
2022-07-28T04:27:35.753Z,100373.63
2022-07-28T04:30:05.646Z,100368.22
2022-07-28T04:32:32.553Z,100362.59
2022-07-28T04:34:59.486Z,100363.19
2022-07-28T04:37:27.461Z,100354.88
2022-07-28T04:39:59.666Z,100351.88
2022-07-28T04:42:26.717Z,100358.25
2022-07-28T04:44:53.498Z,100365.34
2022-07-28T04:47:20.284Z,100352.19
2022-07-28T04:49:47.116Z,100353.66
2022-07-28T04:52:14.145Z,100359.25
2022-07-28T04:54:41.005Z,100356.28
2022-07-28T04:57:12.009Z,100356.31
2022-07-28T04:59:39.875Z,100353.25
2022-07-28T05:02:06.974Z,100348.41
2022-07-28T05:04:33.773Z,100349.06
2022-07-28T05:07:02.289Z,100348.72
2022-07-28T05:09:39.565Z,100342.00
2022-07-28T05:12:06.821Z,100347.16
2022-07-28T05:14:33.595Z,100349.25
2022-07-28T05:17:00.452Z,100356.56
2022-07-28T05:19:27.359Z,100353.47
2022-07-28T05:21:54.066Z,100350.75
2022-07-28T05:24:20.855Z,100359.66
2022-07-28T05:26:47.595Z,100357.59
2022-07-28T05:29:14.374Z,100352.09
2022-07-28T05:31:41.200Z,100358.66
2022-07-28T05:34:07.975Z,100351.12
2022-07-28T05:36:36.186Z,100350.00
2022-07-28T05:39:03.738Z,100358.31
2022-07-28T05:41:30.597Z,100361.50
2022-07-28T05:43:58.544Z,100365.66
2022-07-28T05:46:25.413Z,100368.41
2022-07-28T05:48:53.133Z,100371.41
2022-07-28T05:51:19.945Z,100373.38
2022-07-28T05:53:46.925Z,100369.91
2022-07-28T05:56:13.755Z,100368.28
2022-07-28T05:58:40.634Z,100377.75
2022-07-28T06:01:07.558Z,100381.38
2022-07-28T06:03:41.444Z,100377.25
2022-07-28T06:06:15.828Z,100385.47
2022-07-28T06:08:44.024Z,100379.22
2022-07-28T06:11:11.936Z,100385.84
2022-07-28T06:13:49.614Z,100383.03
2022-07-28T06:16:16.546Z,100384.00
2022-07-28T06:18:44.150Z,100386.44
2022-07-28T06:21:11.143Z,100392.78
2022-07-28T06:23:38.294Z,100386.28
2022-07-28T06:26:05.124Z,100389.09
2022-07-28T06:28:33.156Z,100392.69
2022-07-28T06:30:59.986Z,100381.44
2022-07-28T06:33:26.914Z,100389.87
2022-07-28T06:35:53.796Z,100383.41
2022-07-28T06:38:20.866Z,100393.56
2022-07-28T06:40:48.596Z,100391.84
2022-07-28T06:43:15.460Z,100394.62
2022-07-28T06:45:42.465Z,100392.06
2022-07-28T06:48:09.384Z,100391.97
2022-07-28T06:50:39.485Z,100394.59
2022-07-28T06:53:06.556Z,100400.72
2022-07-28T06:55:35.522Z,100382.78
2022-07-28T06:58:06.218Z,100388.47
2022-07-28T07:00:33.186Z,100389.91
2022-07-28T07:03:00.765Z,100382.78
2022-07-28T07:05:30.084Z,100386.53
2022-07-28T07:07:56.888Z,100390.91
2022-07-28T07:10:24.098Z,100397.47
2022-07-28T07:12:51.036Z,100400.13
2022-07-28T07:15:17.906Z,100394.09
2022-07-28T07:17:44.735Z,100394.06
2022-07-28T07:20:13.624Z,100401.62
2022-07-28T07:22:45.287Z,100398.78
2022-07-28T07:25:15.382Z,100399.87
2022-07-28T07:27:42.416Z,100403.72
2022-07-28T07:30:10.156Z,100400.94
2022-07-28T07:32:37.455Z,100409.34
2022-07-28T07:35:05.113Z,100412.50
2022-07-28T07:37:32.870Z,100419.91
2022-07-28T07:40:00.494Z,100421.19
2022-07-28T07:42:28.007Z,100421.94
2022-07-28T07:44:55.178Z,100412.69
2022-07-28T07:47:22.155Z,100422.56
2022-07-28T07:49:49.526Z,100429.59
2022-07-28T07:52:16.315Z,100421.06
2022-07-28T07:54:43.669Z,100433.47
2022-07-28T07:57:10.574Z,100431.97
2022-07-28T07:59:37.557Z,100434.34
2022-07-28T08:02:04.652Z,100432.44
2022-07-28T08:04:31.908Z,100426.50
2022-07-28T08:07:05.100Z,100418.97
2022-07-28T08:09:33.166Z,100417.22
2022-07-28T08:12:00.261Z,100416.94
2022-07-28T08:14:27.096Z,100416.37
2022-07-28T08:16:56.619Z,100422.72
2022-07-28T08:19:23.700Z,100411.50
2022-07-28T08:21:52.066Z,100402.53
2022-07-28T08:24:31.672Z,100404.34
2022-07-28T08:27:05.096Z,100397.94
2022-07-28T08:29:32.575Z,100397.34
2022-07-28T08:32:01.501Z,100397.50
2022-07-28T08:34:33.178Z,100401.88
2022-07-28T08:37:02.859Z,100395.47
2022-07-28T08:39:30.975Z,100395.34
2022-07-28T08:42:07.592Z,100393.13
2022-07-28T08:44:55.277Z,100392.03
2022-07-28T08:47:22.489Z,100387.50
2022-07-28T08:49:52.078Z,100387.66
2022-07-28T08:52:21.726Z,100383.34
2022-07-28T08:54:50.154Z,100382.16
2022-07-28T08:57:23.075Z,100379.50
2022-07-28T08:59:50.325Z,100378.81
2022-07-28T09:02:17.621Z,100373.03
2022-07-28T09:04:46.499Z,100366.28
2022-07-28T09:07:13.880Z,100368.16
2022-07-28T09:09:40.776Z,100359.91
2022-07-28T09:12:08.234Z,100355.69
2022-07-28T09:14:35.174Z,100361.09
2022-07-28T09:17:03.149Z,100355.69
2022-07-28T09:19:34.053Z,100364.19
2022-07-28T09:22:02.977Z,100360.13
2022-07-28T09:24:36.613Z,100359.00
2022-07-28T09:27:08.275Z,100360.03
2022-07-28T09:29:36.935Z,100356.88
2022-07-28T09:32:04.979Z,100366.25
2022-07-28T09:34:46.377Z,100348.78
2022-07-28T09:37:26.501Z,100353.31
2022-07-28T09:39:58.345Z,100349.19
2022-07-28T09:42:25.994Z,100351.41
2022-07-28T09:45:24.292Z,100343.56
2022-07-28T09:48:12.147Z,100340.84
2022-07-28T09:50:41.015Z,100338.59
2022-07-28T09:53:28.515Z,100328.87
2022-07-28T09:56:01.291Z,100329.94
2022-07-28T09:58:30.336Z,100328.09
2022-07-28T10:01:08.045Z,100323.03
2022-07-28T10:03:36.883Z,100318.56
2022-07-28T10:06:08.508Z,100317.31
2022-07-28T10:08:47.445Z,100320.41
2022-07-28T10:11:15.978Z,100311.56
2022-07-28T10:14:03.182Z,100307.03
2022-07-28T10:16:36.978Z,100305.88
2022-07-28T10:19:06.450Z,100302.63
2022-07-28T10:21:40.597Z,100299.31
2022-07-28T10:24:09.513Z,100302.66
2022-07-28T10:26:44.988Z,100303.78
2022-07-28T10:29:18.637Z,100307.78
2022-07-28T10:31:55.164Z,100303.72
2022-07-28T10:34:32.085Z,100301.25
2022-07-28T10:37:03.095Z,100303.25
2022-07-28T10:39:39.625Z,100304.66
2022-07-28T10:42:11.276Z,100300.16
2022-07-28T10:44:39.146Z,100288.72
2022-07-28T10:47:18.413Z,100293.94
2022-07-28T10:49:50.400Z,100298.66
2022-07-28T10:55:08.643Z,100293.97
2022-07-28T10:57:41.896Z,100282.22
2022-07-28T11:00:13.210Z,100287.16
2022-07-28T11:02:52.544Z,100279.25
2022-07-28T11:05:36.561Z,100278.13
2022-07-28T11:08:06.538Z,100280.72
2022-07-28T11:11:07.695Z,100274.47
2022-07-28T11:13:41.059Z,100269.72
2022-07-28T11:16:14.648Z,100258.34
2022-07-28T11:19:41.979Z,100260.75
2022-07-28T11:22:19.215Z,100261.69
2022-07-28T11:25:18.837Z,100253.25
2022-07-28T11:27:54.630Z,100254.84
2022-07-28T11:30:37.501Z,100248.53
2022-07-28T11:33:07.254Z,100258.84
2022-07-28T11:35:40.420Z,100250.97
2022-07-28T11:38:09.377Z,100258.38
2022-07-28T11:40:44.206Z,100259.22
2022-07-28T11:43:36.006Z,100256.28
2022-07-28T11:46:05.303Z,100244.41
2022-07-28T11:48:37.327Z,100251.34
2022-07-28T11:51:04.249Z,100245.19
2022-07-28T11:53:41.907Z,100247.25
2022-07-28T11:56:10.727Z,100246.91
2022-07-28T11:58:38.956Z,100243.72
2022-07-28T12:01:17.757Z,100244.37
2022-07-28T12:03:49.197Z,100242.44
2022-07-28T12:06:29.072Z,100242.38
2022-07-28T12:09:05.477Z,100242.38
2022-07-28T12:11:34.435Z,100244.37
2022-07-28T12:14:04.454Z,100236.94
2022-07-28T12:16:33.507Z,100246.91
2022-07-28T12:19:01.682Z,100242.84
2022-07-28T12:21:47.480Z,100242.81
2022-07-28T12:24:27.926Z,100236.09
2022-07-28T12:26:56.035Z,100247.31
2022-07-28T12:29:24.107Z,100240.75
2022-07-28T12:32:06.838Z,100244.50
2022-07-28T12:34:35.336Z,100237.13
2022-07-28T12:37:09.995Z,100233.31
2022-07-28T12:39:39.907Z,100230.03
2022-07-28T12:42:10.018Z,100229.06
2022-07-28T12:44:37.856Z,100236.50
2022-07-28T12:47:08.397Z,100228.16
2022-07-28T12:49:36.586Z,100232.50
2022-07-28T12:52:25.594Z,100218.53
2022-07-28T12:54:55.737Z,100225.53
2022-07-28T12:57:48.881Z,100221.06
2022-07-28T13:00:20.129Z,100215.81
2022-07-28T13:02:48.551Z,100214.47
2022-07-28T13:05:55.631Z,100206.25
2022-07-28T13:08:27.603Z,100204.97
2022-07-28T13:10:58.593Z,100198.34
2022-07-28T13:13:26.154Z,100199.63
2022-07-28T13:16:31.797Z,100198.62
2022-07-28T13:19:02.882Z,100199.47
2022-07-28T13:21:56.605Z,100198.19
2022-07-28T13:24:24.456Z,100194.91
2022-07-28T13:26:51.355Z,100191.97
2022-07-28T13:29:18.335Z,100197.19
2022-07-28T13:31:45.195Z,100189.81
2022-07-28T13:34:12.292Z,100194.03
2022-07-28T13:36:39.457Z,100193.28
2022-07-28T13:39:07.979Z,100188.25
2022-07-28T13:41:42.080Z,100187.97
2022-07-28T13:44:21.636Z,100178.97
2022-07-28T13:46:50.049Z,100181.38
2022-07-28T13:49:17.408Z,100180.59
2022-07-28T13:51:48.533Z,100168.94
2022-07-28T13:54:18.521Z,100175.75
2022-07-28T13:56:45.791Z,100175.06
2022-07-28T13:59:13.845Z,100169.37
2022-07-28T14:01:42.465Z,100165.09
2022-07-28T14:04:15.001Z,100163.84
2022-07-28T14:06:45.328Z,100161.50
2022-07-28T14:09:18.193Z,100159.66
2022-07-28T14:11:49.576Z,100155.63
2022-07-28T14:14:20.540Z,100155.59
2022-07-28T14:16:52.402Z,100147.72
2022-07-28T14:19:23.342Z,100157.22
2022-07-28T14:22:10.510Z,100151.38
2022-07-28T14:24:40.135Z,100152.75
2022-07-28T14:27:07.055Z,100152.06
2022-07-28T14:29:33.864Z,100160.84
2022-07-28T14:32:00.689Z,100158.38
2022-07-28T14:34:27.496Z,100154.59
2022-07-28T14:36:56.496Z,100153.63
2022-07-28T14:39:23.224Z,100157.44
2022-07-28T14:41:50.833Z,100157.69
2022-07-28T14:44:24.401Z,100155.19
2022-07-28T14:46:52.235Z,100153.06
2022-07-28T14:49:19.176Z,100150.28
2022-07-28T14:51:46.155Z,100152.28
2022-07-28T14:54:13.521Z,100144.63
2022-07-28T14:56:40.575Z,100143.19
2022-07-28T14:59:07.418Z,100139.59
2022-07-28T15:01:36.110Z,100147.47
2022-07-28T15:04:03.796Z,100137.09
2022-07-28T15:06:30.636Z,100143.03
2022-07-28T15:08:58.633Z,100146.25
2022-07-28T15:11:26.336Z,100135.53
2022-07-28T15:13:53.095Z,100138.56
2022-07-28T15:16:19.995Z,100134.25
2022-07-28T15:18:46.885Z,100130.31
2022-07-28T15:21:16.807Z,100135.97
2022-07-28T15:23:44.308Z,100124.22
2022-07-28T15:26:11.548Z,100128.75
2022-07-28T15:28:38.836Z,100132.28
2022-07-28T15:31:07.801Z,100126.81
2022-07-28T15:33:47.750Z,100131.69
2022-07-28T15:36:15.865Z,100128.37
2022-07-28T15:38:47.446Z,100126.16
2022-07-28T15:41:16.629Z,100117.19
2022-07-28T15:43:43.700Z,100118.94
2022-07-28T15:46:13.165Z,100122.84
2022-07-28T15:48:43.417Z,100114.78
2022-07-28T15:51:10.731Z,100115.75
2022-07-28T15:53:38.306Z,100111.50
2022-07-28T15:56:05.534Z,100117.38
2022-07-28T15:58:32.465Z,100110.22
2022-07-28T16:01:01.007Z,100104.63
2022-07-28T16:03:29.795Z,100100.91
2022-07-28T16:05:57.376Z,100103.53
2022-07-28T16:08:24.326Z,100102.34
2022-07-28T16:10:54.245Z,100101.34
2022-07-28T16:13:31.338Z,100100.06
2022-07-28T16:16:04.408Z,100100.72
2022-07-28T16:18:32.176Z,100104.38
2022-07-28T16:20:59.216Z,100110.88
2022-07-28T16:23:26.143Z,100101.81
2022-07-28T16:25:53.082Z,100099.09
2022-07-28T16:28:19.938Z,100102.44
2022-07-28T16:30:48.172Z,100092.59
2022-07-28T16:33:15.006Z,100097.16
2022-07-28T16:35:41.836Z,100098.63
2022-07-28T16:38:08.655Z,100096.75
2022-07-28T16:40:35.583Z,100092.28
2022-07-28T16:43:04.437Z,100094.06
2022-07-28T16:45:31.730Z,100094.16
2022-07-28T16:47:59.314Z,100101.34
2022-07-28T16:50:26.097Z,100098.72
2022-07-28T16:52:55.738Z,100098.91
2022-07-28T16:55:24.615Z,100107.03
2022-07-28T16:57:54.160Z,100104.44
2022-07-28T17:00:21.602Z,100101.28
2022-07-28T17:02:48.477Z,100107.88
2022-07-28T17:05:15.376Z,100112.88
2022-07-28T17:07:45.536Z,100111.87
2022-07-28T17:10:15.448Z,100100.19
2022-07-28T17:12:49.696Z,100102.47
2022-07-28T17:15:21.959Z,100103.72
2022-07-28T17:17:51.032Z,100104.94
2022-07-28T17:20:19.104Z,100104.25
2022-07-28T17:22:45.924Z,100108.72
2022-07-28T17:25:42.939Z,100109.38
2022-07-28T17:27:59.911Z,100118.44
2022-07-28T17:30:29.820Z,100113.56
2022-07-28T17:33:00.026Z,100117.69
2022-07-28T17:35:31.918Z,100118.78
2022-07-28T17:38:03.912Z,100118.66
2022-07-28T17:40:30.936Z,100117.12
2022-07-28T17:42:57.825Z,100117.47
2022-07-28T17:45:25.083Z,100128.59
2022-07-28T17:47:51.995Z,100127.75
2022-07-28T17:50:19.004Z,100123.47
2022-07-28T17:52:46.781Z,100119.91
2022-07-28T17:55:40.761Z,100123.66
2022-07-28T17:58:28.113Z,100117.31
2022-07-28T18:01:09.579Z,100121.75
2022-07-28T18:03:56.577Z,100106.56
2022-07-28T18:06:35.514Z,100114.91
2022-07-28T18:09:07.912Z,100106.72
2022-07-28T18:11:57.428Z,100114.66
2022-07-28T18:14:27.849Z,100118.53
2022-07-28T18:16:55.105Z,100122.91
2022-07-28T18:19:22.003Z,100124.41
2022-07-28T18:21:49.373Z,100121.03
2022-07-28T18:24:16.903Z,100116.31
2022-07-28T18:26:44.194Z,100122.50
2022-07-28T18:29:10.999Z,100122.78
2022-07-28T18:31:43.825Z,100124.28
2022-07-28T18:34:13.734Z,100121.41
2022-07-28T18:36:40.843Z,100128.94
2022-07-28T18:39:08.726Z,100132.28
2022-07-28T18:41:46.176Z,100135.69
2022-07-28T18:44:18.561Z,100141.75
2022-07-28T18:46:46.246Z,100132.09
2022-07-28T18:49:13.456Z,100132.81
2022-07-28T18:51:44.229Z,100144.53
2022-07-28T18:54:12.758Z,100150.16
2022-07-28T18:56:40.096Z,100153.22
2022-07-28T18:59:07.656Z,100164.41
2022-07-28T19:01:34.715Z,100157.34
2022-07-28T19:04:01.823Z,100163.06
2022-07-28T19:06:29.667Z,100170.22
2022-07-28T19:08:56.477Z,100170.81
2022-07-28T19:11:23.375Z,100167.81
2022-07-28T19:13:50.276Z,100169.41
2022-07-28T19:16:17.344Z,100175.00
2022-07-28T19:18:44.194Z,100181.03
2022-07-28T19:21:11.137Z,100187.16
2022-07-28T19:23:38.256Z,100190.59
2022-07-28T19:26:05.157Z,100199.97
2022-07-28T19:28:32.376Z,100192.59
2022-07-28T19:31:10.112Z,100199.41
2022-07-28T19:33:37.667Z,100194.28
2022-07-28T19:36:11.217Z,100202.69
2022-07-28T19:38:38.136Z,100204.72
2022-07-28T19:41:04.955Z,100208.03
2022-07-28T19:43:32.056Z,100210.47
2022-07-28T19:46:00.333Z,100210.56
2022-07-28T19:48:27.457Z,100213.53
2022-07-28T19:50:54.675Z,100218.03
2022-07-28T19:53:25.111Z,100207.50
2022-07-28T19:55:58.572Z,100217.28
2022-07-28T19:58:25.505Z,100220.44
2022-07-28T20:00:52.682Z,100215.50
2022-07-28T20:04:01.759Z,100220.34
2022-07-28T20:06:07.684Z,100223.13
2022-07-28T20:08:34.502Z,100223.44
2022-07-28T20:11:01.615Z,100214.66
2022-07-28T20:13:28.555Z,100216.72
2022-07-28T20:15:55.956Z,100227.13
2022-07-28T20:18:22.706Z,100221.16
2022-07-28T20:20:49.595Z,100221.91
2022-07-28T20:23:16.574Z,100221.91
2022-07-28T20:25:45.437Z,100222.81
2022-07-28T20:28:12.607Z,100214.25
2022-07-28T20:30:40.226Z,100226.66
2022-07-28T20:33:08.285Z,100225.09
2022-07-28T20:35:35.337Z,100230.91
2022-07-28T20:38:03.196Z,100225.94
2022-07-28T20:40:30.325Z,100235.03
2022-07-28T20:42:57.113Z,100237.06
2022-07-28T20:45:24.014Z,100232.16
2022-07-28T20:47:50.794Z,100240.97
2022-07-28T20:50:18.005Z,100233.72
2022-07-28T20:52:44.875Z,100235.34
2022-07-28T20:55:12.577Z,100237.19
2022-07-28T20:57:39.517Z,100235.94
2022-07-28T21:00:07.286Z,100235.34
2022-07-28T21:02:34.376Z,100243.44
2022-07-28T21:05:01.368Z,100245.62
2022-07-28T21:08:04.611Z,100248.09
2022-07-28T21:10:15.045Z,100254.34
2022-07-28T21:12:42.037Z,100246.72
2022-07-28T21:15:09.684Z,100246.87
2022-07-28T21:17:37.126Z,100246.00
2022-07-28T21:20:05.130Z,100247.59
2022-07-28T21:22:32.007Z,100255.00
2022-07-28T21:24:59.398Z,100255.78
2022-07-28T21:27:26.397Z,100260.84
2022-07-28T21:32:19.223Z,100258.88
2022-07-28T21:34:46.174Z,100260.41
2022-07-28T21:37:13.918Z,100270.41
2022-07-28T21:39:40.803Z,100272.44
2022-07-28T21:42:08.730Z,100269.75
2022-07-28T21:44:37.135Z,100267.50
2022-07-28T21:47:04.468Z,100272.62
2022-07-28T21:49:32.621Z,100271.91
2022-07-28T21:51:59.819Z,100272.09
2022-07-28T21:54:26.661Z,100284.81
2022-07-28T21:56:53.476Z,100290.66
2022-07-28T21:59:20.336Z,100291.91
2022-07-28T22:01:47.919Z,100292.41
2022-07-28T22:04:15.399Z,100291.31
2022-07-28T22:06:46.183Z,100288.56
2022-07-28T22:09:14.929Z,100284.97
2022-07-28T22:11:42.246Z,100290.88
2022-07-28T22:14:09.674Z,100284.41
2022-07-28T22:16:36.548Z,100288.22
2022-07-28T22:19:04.005Z,100290.25
2022-07-28T22:21:31.339Z,100284.19
2022-07-28T22:23:58.171Z,100286.25
2022-07-28T22:26:25.143Z,100285.19
2022-07-28T22:28:52.000Z,100282.25
2022-07-28T22:31:18.929Z,100282.16
2022-07-28T22:33:45.804Z,100276.56
2022-07-28T22:36:12.756Z,100280.44
2022-07-28T22:38:39.521Z,100276.38
2022-07-28T22:41:06.392Z,100283.78
2022-07-28T22:43:34.081Z,100278.94
2022-07-28T22:46:01.271Z,100278.19
2022-07-28T22:48:28.530Z,100278.41
2022-07-28T22:50:55.820Z,100281.41
2022-07-28T22:53:22.651Z,100281.44
2022-07-28T22:55:49.535Z,100282.03
2022-07-28T22:58:16.426Z,100284.84
2022-07-28T23:00:43.886Z,100282.03
2022-07-28T23:03:13.256Z,100281.28
2022-07-28T23:05:40.452Z,100287.34
2022-07-28T23:08:07.439Z,100290.88
2022-07-28T23:10:34.868Z,100287.75
2022-07-28T23:13:02.187Z,100291.37
2022-07-28T23:15:41.214Z,100289.69
2022-07-28T23:18:12.027Z,100288.63
2022-07-28T23:20:39.327Z,100277.69
2022-07-28T23:23:06.948Z,100284.59
2022-07-28T23:25:39.761Z,100277.31
2022-07-28T23:28:07.925Z,100277.59
2022-07-28T23:30:35.090Z,100281.44
2022-07-28T23:33:02.026Z,100282.62
2022-07-28T23:35:29.026Z,100279.38
2022-07-28T23:37:55.983Z,100274.78
2022-07-28T23:40:23.045Z,100276.91
2022-07-28T23:42:49.893Z,100273.66
2022-07-28T23:45:16.825Z,100281.13
2022-07-28T23:47:43.657Z,100276.03
2022-07-28T23:50:10.866Z,100271.03
2022-07-28T23:52:37.746Z,100272.56
2022-07-28T23:55:05.295Z,100274.31
2022-07-28T23:57:32.131Z,100268.34
